Shedd, Oregon
Current Conditions -  °F | °C
As of 7:55 PM on Saturday 20 Dec 2014 (Local Time) from KCVO Reporting Station
Overcast Overcast  
Wind Chill: 57°   Ceiling: 4900
Heat Index: 57°   Visibility: 7mi
Dew Point: 54°   Wind: 13mph
Humidity: 88%   Direction: 180°S
Pressure: 29.77"   Gusts: NA
Location:  44.46°N, 123.11°W
Report Text: KCVO 210355Z AUTO 18011KT 7SM FEW022 SCT026 OVC049 14/12 A2977 RMK AO1 P0006
Loading
Personal Weather Stations






























Interactive Weather Map New forecast layout! Learn more

10-Day Weather Forecast

Advertisements
Track Severe Weather on mobile